createdAt,value
2017-05-26T00:01:15.040Z,23.1
2017-05-26T00:02:14.366Z,23.15
2017-05-26T00:03:14.910Z,23.13
2017-05-26T00:04:14.845Z,23.18
2017-05-26T00:05:14.478Z,23.17
2017-05-26T00:06:15.025Z,23.15
2017-05-26T00:07:14.672Z,23.15
2017-05-26T00:08:14.292Z,23.15
2017-05-26T00:09:14.531Z,23.13
2017-05-26T00:10:14.471Z,23.13
2017-05-26T00:11:14.552Z,23.18
2017-05-26T00:12:14.343Z,23.15
2017-05-26T00:13:13.978Z,23.17
2017-05-26T00:14:13.933Z,23.13
2017-05-26T00:15:14.152Z,23.08
2017-05-26T00:16:14.097Z,23.15
2017-05-26T00:17:14.027Z,23.1
2017-05-26T00:18:13.363Z,23.1
2017-05-26T00:19:13.301Z,23.15
2017-05-26T00:20:13.538Z,23.13
2017-05-26T00:21:13.777Z,23.13
2017-05-26T00:22:13.716Z,23.18
2017-05-26T00:23:13.349Z,23.2
2017-05-26T00:24:13.587Z,23.06
2017-05-26T00:25:13.225Z,23.2
2017-05-26T00:26:13.162Z,23.18
2017-05-26T00:27:13.108Z,23.18
2017-05-26T00:28:13.344Z,23.13
2017-05-26T00:29:12.971Z,23.12
2017-05-26T00:30:13.216Z,23.12
2017-05-26T00:31:13.151Z,23.18
2017-05-26T00:32:13.084Z,23.08
2017-05-26T00:33:13.023Z,23.12
2017-05-26T00:34:12.963Z,23.2
2017-05-26T00:35:12.599Z,23.15
2017-05-26T00:36:12.836Z,23.12
2017-05-26T00:37:13.074Z,23.21
2017-05-26T00:38:12.709Z,23.15
2017-05-26T00:39:12.346Z,23.13
2017-05-26T00:40:12.586Z,23.13
2017-05-26T00:41:12.523Z,23.17
2017-05-26T00:42:12.710Z,23.24
2017-05-26T00:43:12.395Z,23.13
2017-05-26T00:44:12.336Z,23.2
2017-05-26T00:45:11.968Z,23.18
2017-05-26T00:46:12.210Z,23.21
2017-05-26T00:47:11.847Z,23.23
2017-05-26T00:48:12.076Z,23.17
2017-05-26T00:49:12.026Z,23.15
2017-05-26T00:50:11.963Z,23.21
2017-05-26T00:51:11.895Z,23.09
2017-05-26T00:52:11.830Z,23.17
2017-05-26T00:53:11.775Z,23.12
2017-05-26T00:54:11.709Z,23.1
2017-05-26T00:55:11.643Z,23.13
2017-05-26T00:56:11.277Z,23.17
2017-05-26T00:57:11.518Z,23.21
2017-05-26T00:58:11.455Z,23.15
2017-05-26T00:59:11.392Z,23.15
2017-05-26T01:00:11.028Z,23.21
2017-05-26T01:01:11.278Z,23.21
2017-05-26T01:02:11.202Z,23.21
2017-05-26T01:03:11.289Z,23.17
2017-05-26T01:04:11.078Z,23.23
2017-05-26T01:05:11.017Z,23.18
2017-05-26T01:06:10.955Z,23.1
2017-05-26T01:07:10.897Z,23.23
2017-05-26T01:08:10.925Z,23.13
2017-05-26T01:09:10.767Z,23.13
2017-05-26T01:10:10.713Z,23.18
2017-05-26T01:11:10.639Z,23.18
2017-05-26T01:12:09.976Z,23.13
2017-05-26T01:13:10.163Z,23.23
2017-05-26T01:14:10.456Z,23.2
2017-05-26T01:15:10.086Z,23.17
2017-05-26T01:16:09.722Z,23.13
2017-05-26T01:17:09.962Z,23.2
2017-05-26T01:18:09.899Z,23.17
2017-05-26T01:19:10.136Z,23.13
2017-05-26T01:20:10.076Z,23.21
2017-05-26T01:21:10.009Z,23.13
2017-05-26T01:22:09.946Z,23.15
2017-05-26T01:23:09.590Z,23.2
2017-05-26T01:24:09.825Z,23.18
2017-05-26T01:25:09.766Z,23.2
2017-05-26T01:26:09.397Z,23.23
2017-05-26T01:27:09.333Z,23.2
2017-05-26T01:28:09.567Z,23.15
2017-05-26T01:29:09.509Z,23.2
2017-05-26T01:30:09.445Z,23.13
2017-05-26T01:31:09.390Z,23.2
2017-05-26T01:32:09.082Z,23.17
2017-05-26T01:33:09.261Z,23.13
2017-05-26T01:34:09.347Z,23.2
2017-05-26T01:35:09.132Z,23.25
2017-05-26T01:36:09.078Z,23.13
2017-05-26T01:37:09.014Z,23.2
2017-05-26T01:38:08.947Z,23.13
2017-05-26T01:39:23.480Z,23.21
2017-05-26T01:40:08.822Z,23.18
2017-05-26T01:41:08.763Z,23.18
2017-05-26T01:42:08.696Z,23.13
2017-05-26T01:43:08.635Z,23.21
2017-05-26T01:44:08.273Z,23.13
2017-05-26T01:45:08.512Z,23.2
2017-05-26T01:46:08.139Z,23.15
2017-05-26T01:47:08.079Z,23.15
2017-05-26T01:48:08.317Z,23.18
2017-05-26T01:49:08.253Z,23.17
2017-05-26T01:50:07.587Z,23.18
2017-05-26T01:51:07.827Z,23.17
2017-05-26T01:52:07.771Z,23.2
2017-05-26T01:53:07.717Z,23.24
2017-05-26T01:54:07.337Z,23.15
2017-05-26T01:55:07.273Z,23.15
2017-05-26T01:56:07.815Z,23.2
2017-05-26T01:57:07.753Z,23.17
2017-05-26T01:58:07.395Z,23.15
2017-05-26T01:59:07.633Z,23.18
2017-05-26T02:00:07.572Z,23.18
2017-05-26T02:01:07.202Z,23.23
2017-05-26T02:02:07.455Z,23.2
2017-05-26T02:03:07.078Z,23.15
2017-05-26T02:04:07.315Z,23.23
2017-05-26T02:05:07.255Z,23.21
2017-05-26T02:06:06.887Z,23.24
2017-05-26T02:07:07.134Z,23.13
2017-05-26T02:08:07.066Z,23.2
2017-05-26T02:09:07.004Z,23.21
2017-05-26T02:10:06.943Z,23.17
2017-05-26T02:11:06.574Z,23.2
2017-05-26T02:12:06.812Z,23.18
2017-05-26T02:13:06.452Z,23.18
2017-05-26T02:14:06.686Z,23.2
2017-05-26T02:15:06.324Z,23.2
2017-05-26T02:16:06.622Z,23.18
2017-05-26T02:17:06.198Z,23.25
2017-05-26T02:18:06.140Z,23.25
2017-05-26T02:19:06.380Z,23.18
2017-05-26T02:20:06.325Z,23.18
2017-05-26T02:21:06.250Z,23.24
2017-05-26T02:22:06.188Z,23.21
2017-05-26T02:23:06.127Z,23.18
2017-05-26T02:24:06.063Z,23.15
2017-05-26T02:25:05.696Z,23.21
2017-05-26T02:26:05.936Z,23.17
2017-05-26T02:27:05.569Z,23.24
2017-05-26T02:28:05.811Z,23.24
2017-05-26T02:29:05.749Z,23.24
2017-05-26T02:30:05.386Z,23.18
2017-05-26T02:31:05.619Z,23.23
2017-05-26T02:32:05.560Z,23.17
2017-05-26T02:33:05.497Z,23.17
2017-05-26T02:34:05.433Z,23.21
2017-05-26T02:35:05.070Z,23.18
2017-05-26T02:36:05.312Z,23.2
2017-05-26T02:37:05.248Z,23.23
2017-05-26T02:38:05.183Z,23.23
2017-05-26T02:39:05.121Z,23.2
2017-05-26T02:40:04.756Z,23.13
2017-05-26T02:41:04.992Z,23.17
2017-05-26T02:42:04.933Z,23.17
2017-05-26T02:43:04.869Z,23.24
2017-05-26T02:44:04.816Z,23.21
2017-05-26T02:45:04.745Z,23.23
2017-05-26T02:46:04.681Z,23.27
2017-05-26T02:47:04.620Z,23.17
2017-05-26T02:48:04.558Z,23.1
2017-05-26T02:49:04.507Z,23.1
2017-05-26T02:50:04.128Z,23.24
2017-05-26T02:51:04.366Z,23.2
2017-05-26T02:52:04.303Z,23.2
2017-05-26T02:53:04.246Z,23.2
2017-05-26T02:54:04.180Z,23.2
2017-05-26T02:55:04.119Z,23.18
2017-05-26T02:56:04.051Z,23.18
2017-05-26T02:57:03.691Z,23.23
2017-05-26T02:58:03.931Z,23.17
2017-05-26T02:59:03.868Z,23.21
2017-05-26T03:00:03.804Z,23.18
2017-05-26T03:01:03.437Z,23.18
2017-05-26T03:02:03.682Z,23.15
2017-05-26T03:03:03.311Z,23.2
2017-05-26T03:04:03.553Z,23.2
2017-05-26T03:05:03.523Z,23.21
2017-05-26T03:06:03.429Z,23.23
2017-05-26T03:07:03.375Z,23.2
2017-05-26T03:08:03.308Z,23.2
2017-05-26T03:09:03.238Z,23.2
2017-05-26T03:10:03.177Z,23.24
2017-05-26T03:11:03.121Z,23.17
2017-05-26T03:12:03.056Z,23.28
2017-05-26T03:13:02.994Z,23.21
2017-05-26T03:14:02.933Z,23.18
2017-05-26T03:15:02.866Z,23.18
2017-05-26T03:16:02.801Z,23.2
2017-05-26T03:17:02.754Z,23.24
2017-05-26T03:18:02.373Z,23.25
2017-05-26T03:19:02.310Z,23.23
2017-05-26T03:20:02.553Z,23.24
2017-05-26T03:21:02.488Z,23.23
2017-05-26T03:22:02.424Z,23.2
2017-05-26T03:23:02.059Z,23.24
2017-05-26T03:24:02.309Z,23.24
2017-05-26T03:25:02.241Z,23.18
2017-05-26T03:26:01.871Z,23.23
2017-05-26T03:27:01.808Z,23.27
2017-05-26T03:28:01.748Z,23.12
2017-05-26T03:29:01.683Z,23.17
2017-05-26T03:30:01.623Z,23.17
2017-05-26T03:31:01.561Z,23.23
2017-05-26T03:32:01.801Z,23.21
2017-05-26T03:33:01.737Z,23.2
2017-05-26T03:34:01.675Z,23.18
2017-05-26T03:35:01.607Z,23.21
2017-05-26T03:36:01.548Z,23.21
2017-05-26T03:37:01.485Z,23.25
2017-05-26T03:38:01.422Z,23.18
2017-05-26T03:39:01.058Z,23.23
2017-05-26T03:40:01.300Z,23.21
2017-05-26T03:41:00.929Z,23.23
2017-05-26T03:42:01.172Z,23.23
2017-05-26T03:43:01.108Z,23.25
2017-05-26T03:44:01.051Z,23.25
2017-05-26T03:45:00.988Z,23.25
2017-05-26T03:46:00.921Z,23.13
2017-05-26T03:47:00.858Z,23.23
2017-05-26T03:48:00.491Z,23.18
2017-05-26T03:49:00.940Z,23.21
2017-05-26T03:50:00.677Z,23.23
2017-05-26T03:51:00.606Z,23.25
2017-05-26T03:52:00.550Z,23.23
2017-05-26T03:53:00.482Z,23.17
2017-05-26T03:54:00.619Z,23.23
2017-05-26T03:55:00.356Z,23.23
2017-05-26T03:56:00.293Z,23.2
2017-05-26T03:57:00.231Z,23.23
2017-05-26T03:58:00.170Z,23.21
2017-05-26T03:59:00.119Z,23.21
2017-05-26T04:00:00.043Z,23.27
2017-05-26T04:00:59.985Z,23.24
2017-05-26T04:01:59.917Z,23.2
2017-05-26T04:02:59.856Z,23.25
2017-05-26T04:03:59.795Z,23.23
2017-05-26T04:04:59.729Z,23.24
2017-05-26T04:05:59.363Z,23.24
2017-05-26T04:06:59.304Z,23.25
2017-05-26T04:07:59.542Z,23.25
2017-05-26T04:08:59.476Z,23.24
2017-05-26T04:09:59.414Z,23.2
2017-05-26T04:10:59.048Z,23.21
2017-05-26T04:11:59.308Z,23.2
2017-05-26T04:12:59.230Z,23.18
2017-05-26T04:13:59.166Z,23.25
2017-05-26T04:14:59.110Z,23.23
2017-05-26T04:15:59.050Z,23.24
2017-05-26T04:16:58.978Z,23.23
2017-05-26T04:17:58.916Z,23.2
2017-05-26T04:18:58.857Z,23.13
2017-05-26T04:19:58.791Z,23.21
2017-05-26T04:20:58.725Z,23.25
2017-05-26T04:21:58.667Z,23.23
2017-05-26T04:22:58.611Z,23.24
2017-05-26T04:23:58.551Z,23.23
2017-05-26T04:24:58.476Z,23.24
2017-05-26T04:25:58.414Z,23.27
2017-05-26T04:26:58.567Z,23.23
2017-05-26T04:27:58.293Z,23.23
2017-05-26T04:28:58.228Z,23.2
2017-05-26T04:29:57.862Z,23.21
2017-05-26T04:30:58.106Z,23.27
2017-05-26T04:31:58.041Z,23.25
2017-05-26T04:32:57.986Z,23.23
2017-05-26T04:33:57.936Z,23.24
2017-05-26T04:34:57.855Z,23.23
2017-05-26T04:35:57.786Z,23.21
2017-05-26T04:36:57.721Z,23.25
2017-05-26T04:37:57.665Z,23.23
2017-05-26T04:38:57.604Z,23.25
2017-05-26T04:39:57.534Z,23.25
2017-05-26T04:40:57.475Z,23.21
2017-05-26T04:41:57.104Z,23.25
2017-05-26T04:42:57.347Z,23.23
2017-05-26T04:43:57.288Z,23.18
2017-05-26T04:44:57.240Z,23.24
2017-05-26T04:45:57.160Z,23.27
2017-05-26T04:46:57.093Z,23.27
2017-05-26T04:47:57.036Z,23.24
2017-05-26T04:48:56.975Z,23.24
2017-05-26T04:49:56.661Z,23.23
2017-05-26T04:50:56.848Z,23.24
2017-05-26T04:51:56.792Z,23.24
2017-05-26T04:52:56.729Z,23.23
2017-05-26T04:53:56.662Z,23.24
2017-05-26T04:54:56.600Z,23.23
2017-05-26T04:55:56.530Z,23.21
2017-05-26T04:56:56.469Z,23.21
2017-05-26T04:57:56.413Z,23.24
2017-05-26T04:58:56.345Z,23.21
2017-05-26T04:59:56.280Z,23.24
2017-05-26T05:00:56.218Z,23.12
2017-05-26T05:01:56.216Z,23.18
2017-05-26T05:02:56.095Z,23.13
2017-05-26T05:03:56.029Z,23.1
2017-05-26T05:04:55.971Z,23.15
2017-05-26T05:05:55.904Z,23.13
2017-05-26T05:06:55.853Z,23.13
2017-05-26T05:07:55.788Z,23.15
2017-05-26T05:08:55.415Z,23.21
2017-05-26T05:09:55.362Z,23.1
2017-05-26T05:10:55.287Z,23.17
2017-05-26T05:11:55.223Z,23.2
2017-05-26T05:12:55.474Z,23.18
2017-05-26T05:13:55.401Z,23.12
2017-05-26T05:14:55.037Z,23.18
2017-05-26T05:15:55.278Z,23.12
2017-05-26T05:16:55.211Z,23.1
2017-05-26T05:17:55.154Z,23.15
2017-05-26T05:18:55.088Z,23.1
2017-05-26T05:19:55.033Z,23.09
2017-05-26T05:20:54.960Z,23.12
2017-05-26T05:21:54.597Z,23.08
2017-05-26T05:22:54.839Z,23.09
2017-05-26T05:23:54.468Z,23.09
2017-05-26T05:24:54.711Z,23.1
2017-05-26T05:25:54.647Z,23.13
2017-05-26T05:26:54.585Z,23.09
2017-05-26T05:27:54.523Z,23.09
2017-05-26T05:28:54.458Z,23.08
2017-05-26T05:29:54.402Z,23.15
2017-05-26T05:30:53.729Z,23.13
2017-05-26T05:31:53.664Z,23.08
2017-05-26T05:32:54.202Z,23.1
2017-05-26T05:33:54.146Z,23.09
2017-05-26T05:34:53.794Z,23.03
2017-05-26T05:35:54.016Z,23.13
2017-05-26T05:36:53.958Z,23.08
2017-05-26T05:37:53.895Z,23.12
2017-05-26T05:38:53.827Z,23.09
2017-05-26T05:39:53.768Z,23.05
2017-05-26T05:40:53.708Z,23.09
2017-05-26T05:41:53.340Z,23.02
2017-05-26T05:42:53.578Z,23.03
2017-05-26T05:43:53.512Z,23.05
2017-05-26T05:44:53.452Z,23.05
2017-05-26T05:45:53.401Z,23.05
2017-05-26T05:46:53.328Z,23
2017-05-26T05:47:53.266Z,23.03
2017-05-26T05:48:53.219Z,23.05
2017-05-26T05:49:53.139Z,23.03
2017-05-26T05:50:52.769Z,23.03
2017-05-26T05:51:53.022Z,23.02
2017-05-26T05:52:52.647Z,23.02
2017-05-26T05:53:52.884Z,22.99
2017-05-26T05:54:52.820Z,22.98
2017-05-26T05:55:52.760Z,23.06
2017-05-26T05:56:52.694Z,22.99
2017-05-26T05:57:52.635Z,23
2017-05-26T05:58:52.572Z,23.06
2017-05-26T05:59:52.509Z,23.02
2017-05-26T06:00:52.449Z,23.05
2017-05-26T06:01:52.385Z,23.02
2017-05-26T06:02:52.320Z,22.99
2017-05-26T06:03:52.259Z,23.03
2017-05-26T06:04:51.892Z,23
2017-05-26T06:05:52.128Z,23.03
2017-05-26T06:06:52.069Z,23
2017-05-26T06:07:51.705Z,23.02
2017-05-26T06:08:51.949Z,23.03
2017-05-26T06:09:51.875Z,22.99
2017-05-26T06:10:51.814Z,23.02
2017-05-26T06:11:51.754Z,23
2017-05-26T06:12:51.385Z,23.05
2017-05-26T06:13:51.627Z,22.99
2017-05-26T06:14:51.567Z,23
2017-05-26T06:15:51.503Z,23
2017-05-26T06:16:51.136Z,23.05
2017-05-26T06:17:51.374Z,23
2017-05-26T06:18:51.007Z,22.99
2017-05-26T06:19:51.246Z,23.02
2017-05-26T06:20:51.208Z,22.99
2017-05-26T06:21:51.124Z,23.05
2017-05-26T06:22:50.757Z,23.03
2017-05-26T06:23:50.694Z,23
2017-05-26T06:24:50.935Z,23.03
2017-05-26T06:25:50.872Z,22.98
2017-05-26T06:26:50.809Z,22.94
2017-05-26T06:27:50.441Z,22.98
2017-05-26T06:28:50.682Z,22.9
2017-05-26T06:29:50.317Z,23
2017-05-26T06:30:50.254Z,22.94
2017-05-26T06:31:50.490Z,23
2017-05-26T06:32:50.432Z,22.94
2017-05-26T06:33:50.071Z,23.02
2017-05-26T06:34:50.307Z,22.94
2017-05-26T06:35:50.240Z,22.98
2017-05-26T06:36:50.178Z,22.93
2017-05-26T06:37:50.115Z,22.85
2017-05-26T06:38:50.057Z,22.99
2017-05-26T06:39:49.989Z,22.96
2017-05-26T06:40:49.928Z,22.91
2017-05-26T06:41:49.862Z,22.98
2017-05-26T06:42:49.799Z,22.98
2017-05-26T06:43:49.737Z,22.94
2017-05-26T06:44:49.678Z,22.93
2017-05-26T06:45:49.613Z,22.98
2017-05-26T06:46:49.546Z,22.94
2017-05-26T06:47:49.484Z,22.91
2017-05-26T06:48:49.421Z,22.94
2017-05-26T06:49:49.353Z,22.91
2017-05-26T06:50:49.297Z,22.88
2017-05-26T06:51:49.234Z,22.91
2017-05-26T06:52:49.168Z,22.91
2017-05-26T06:53:49.111Z,22.94
2017-05-26T06:54:49.045Z,22.91
2017-05-26T06:55:48.979Z,22.94
2017-05-26T06:56:48.913Z,22.91
2017-05-26T06:57:48.877Z,22.93
2017-05-26T06:58:48.492Z,22.78
2017-05-26T06:59:48.123Z,22.83
2017-05-26T07:00:48.812Z,22.87
2017-05-26T07:01:47.995Z,22.94
2017-05-26T07:02:48.540Z,22.91
2017-05-26T07:03:48.478Z,22.94
2017-05-26T07:04:48.412Z,22.9
2017-05-26T07:05:48.196Z,22.87
2017-05-26T07:06:48.283Z,22.93
2017-05-26T07:07:48.225Z,22.96
2017-05-26T07:08:48.157Z,22.91
2017-05-26T07:09:48.096Z,22.9
2017-05-26T07:10:48.136Z,22.84
2017-05-26T07:11:47.979Z,22.93
2017-05-26T07:12:47.905Z,22.78
2017-05-26T07:13:47.847Z,22.84
2017-05-26T07:14:47.829Z,22.84
2017-05-26T07:15:48.018Z,22.83
2017-05-26T07:16:47.658Z,22.96
2017-05-26T07:17:47.594Z,22.84
2017-05-26T07:18:47.226Z,22.81
2017-05-26T07:19:47.467Z,22.84
2017-05-26T07:20:47.399Z,22.88
2017-05-26T07:21:47.339Z,22.98
2017-05-26T07:22:47.278Z,22.93
2017-05-26T07:23:47.218Z,22.81
2017-05-26T07:24:47.157Z,22.85
2017-05-26T07:25:47.254Z,22.84
2017-05-26T07:26:47.026Z,22.84
2017-05-26T07:27:47.042Z,22.91
2017-05-26T07:28:46.902Z,22.81
2017-05-26T07:29:46.835Z,22.87
2017-05-26T07:30:46.823Z,22.84
2017-05-26T07:31:46.713Z,22.93
2017-05-26T07:32:46.646Z,22.84
2017-05-26T07:33:46.588Z,22.91
2017-05-26T07:34:46.546Z,22.87
2017-05-26T07:35:46.477Z,22.83
2017-05-26T07:36:46.088Z,22.84
2017-05-26T07:37:46.426Z,22.84
2017-05-26T07:38:45.980Z,22.81
2017-05-26T07:39:46.208Z,22.81
2017-05-26T07:40:45.839Z,22.88
2017-05-26T07:41:46.078Z,22.76
2017-05-26T07:42:46.016Z,22.75
2017-05-26T07:43:46.174Z,22.87
2017-05-26T07:44:45.887Z,22.81
2017-05-26T07:45:45.825Z,22.8
2017-05-26T07:46:45.763Z,22.81
2017-05-26T07:47:45.753Z,22.81
2017-05-26T07:48:45.634Z,22.81
2017-05-26T07:49:45.268Z,22.81
2017-05-26T07:50:45.219Z,22.83
2017-05-26T07:51:45.446Z,22.85
2017-05-26T07:52:45.384Z,22.83
2017-05-26T07:53:45.377Z,22.83
2017-05-26T07:54:45.259Z,22.84
2017-05-26T07:55:45.242Z,22.83
2017-05-26T07:56:45.151Z,22.83
2017-05-26T07:57:44.859Z,22.87
2017-05-26T07:58:45.036Z,22.84
2017-05-26T07:59:44.942Z,22.9
2017-05-26T08:00:45.353Z,22.87
2017-05-26T08:01:44.817Z,22.81
2017-05-26T08:02:44.750Z,22.78
2017-05-26T08:03:44.772Z,22.87
2017-05-26T08:04:44.692Z,22.8
2017-05-26T08:05:44.607Z,22.85
2017-05-26T08:06:44.500Z,22.84
2017-05-26T08:07:44.434Z,22.87
2017-05-26T08:08:44.376Z,22.83
2017-05-26T08:09:44.311Z,22.83
2017-05-26T08:10:43.657Z,22.81
2017-05-26T08:11:43.882Z,22.81
2017-05-26T08:12:43.530Z,22.81
2017-05-26T08:13:44.121Z,22.78
2017-05-26T08:14:44.011Z,22.8
2017-05-26T08:15:43.664Z,22.78
2017-05-26T08:16:43.867Z,22.84
2017-05-26T08:17:43.810Z,22.81
2017-05-26T08:18:43.486Z,22.8
2017-05-26T08:19:43.441Z,22.87
2017-05-26T08:20:43.360Z,22.8
2017-05-26T08:21:43.565Z,22.84
2017-05-26T08:22:43.507Z,22.84
2017-05-26T08:23:43.127Z,22.81
2017-05-26T08:24:43.363Z,22.81
2017-05-26T08:25:43.298Z,22.76
2017-05-26T08:26:43.233Z,22.78
2017-05-26T08:27:43.184Z,22.88
2017-05-26T08:28:42.854Z,22.81
2017-05-26T08:29:43.053Z,22.87
2017-05-26T08:30:42.986Z,22.84
2017-05-26T08:31:42.914Z,22.75
2017-05-26T08:32:42.857Z,22.84
2017-05-26T08:33:42.794Z,22.85
2017-05-26T08:34:42.437Z,22.81
2017-05-26T08:35:42.670Z,22.84
2017-05-26T08:36:42.607Z,22.85
2017-05-26T08:37:42.557Z,22.85
2017-05-26T08:38:42.201Z,22.78
2017-05-26T08:39:42.108Z,22.85
2017-05-26T08:40:42.049Z,22.8
2017-05-26T08:41:42.295Z,22.84
2017-05-26T08:42:42.240Z,22.85
2017-05-26T08:43:42.170Z,22.81
2017-05-26T08:44:42.109Z,22.83
2017-05-26T08:45:41.730Z,22.76
2017-05-26T08:46:41.969Z,22.78
2017-05-26T08:47:41.924Z,22.83
2017-05-26T08:48:41.237Z,22.83
2017-05-26T08:49:41.782Z,22.8
2017-05-26T08:50:41.722Z,22.83
2017-05-26T08:51:41.659Z,22.81
2017-05-26T08:52:41.596Z,22.78
2017-05-26T08:53:41.227Z,22.84
2017-05-26T08:54:41.469Z,22.84
2017-05-26T08:55:41.403Z,22.81
2017-05-26T08:56:41.338Z,22.76
2017-05-26T08:57:41.276Z,22.8
2017-05-26T08:58:41.219Z,22.83
2017-05-26T08:59:41.148Z,22.81
2017-05-26T09:00:41.117Z,22.8
2017-05-26T09:01:41.024Z,22.78
2017-05-26T09:02:40.960Z,22.83
2017-05-26T09:03:40.903Z,22.78
2017-05-26T09:04:40.532Z,22.83
2017-05-26T09:05:40.770Z,22.8
2017-05-26T09:06:40.716Z,22.81
2017-05-26T09:07:40.341Z,22.87
2017-05-26T09:08:40.609Z,22.84
2017-05-26T09:09:40.561Z,22.87
2017-05-26T09:10:40.455Z,22.84
2017-05-26T09:11:40.394Z,22.84
2017-05-26T09:12:40.326Z,22.81
2017-05-26T09:13:40.265Z,22.81
2017-05-26T09:14:40.205Z,22.85
2017-05-26T09:15:40.140Z,22.87
2017-05-26T09:16:40.077Z,22.83
2017-05-26T09:17:40.015Z,22.83
2017-05-26T09:18:39.959Z,22.85
2017-05-26T09:19:39.771Z,22.78
2017-05-26T09:20:39.519Z,22.83
2017-05-26T09:21:39.768Z,22.78
2017-05-26T09:22:39.697Z,22.83
2017-05-26T09:23:39.640Z,22.81
2017-05-26T09:24:39.588Z,22.83
2017-05-26T09:25:39.516Z,22.83
2017-05-26T09:26:39.142Z,22.81
2017-05-26T09:27:39.414Z,22.83
2017-05-26T09:28:39.315Z,22.9
2017-05-26T09:29:38.957Z,22.83
2017-05-26T09:30:38.891Z,22.81
2017-05-26T09:31:39.128Z,22.88
2017-05-26T09:32:39.063Z,22.83
2017-05-26T09:33:39.007Z,22.87
2017-05-26T09:34:38.939Z,22.84
2017-05-26T09:35:38.973Z,22.85
2017-05-26T09:36:38.838Z,22.94
2017-05-26T09:37:38.755Z,22.84
2017-05-26T09:38:38.391Z,22.8
2017-05-26T09:39:38.626Z,22.81
2017-05-26T09:40:38.559Z,22.81
2017-05-26T09:41:38.194Z,22.8
2017-05-26T09:42:38.435Z,22.84
2017-05-26T09:43:38.374Z,22.83
2017-05-26T09:44:38.038Z,22.8
2017-05-26T09:45:38.245Z,22.93
2017-05-26T09:46:37.879Z,22.83
2017-05-26T09:47:38.122Z,22.83
2017-05-26T09:48:38.062Z,22.85
2017-05-26T09:49:38.000Z,22.88
2017-05-26T09:50:37.931Z,22.9
2017-05-26T09:51:37.864Z,22.91
2017-05-26T09:52:37.805Z,22.8
2017-05-26T09:53:37.743Z,22.91
2017-05-26T09:54:37.676Z,22.84
2017-05-26T09:55:37.614Z,22.93
2017-05-26T09:56:37.555Z,22.96
2017-05-26T09:57:37.187Z,22.93
2017-05-26T09:58:37.429Z,22.85
2017-05-26T09:59:37.364Z,22.93
2017-05-26T10:00:37.302Z,22.85
2017-05-26T10:01:36.931Z,22.83
2017-05-26T10:02:37.175Z,22.8
2017-05-26T10:03:37.112Z,22.76
2017-05-26T10:04:37.052Z,22.9
2017-05-26T10:05:36.721Z,22.84
2017-05-26T10:06:36.941Z,22.9
2017-05-26T10:07:36.866Z,22.85
2017-05-26T10:08:36.801Z,22.91
2017-05-26T10:09:36.743Z,22.93
2017-05-26T10:10:36.667Z,22.83
2017-05-26T10:11:36.605Z,22.91
2017-05-26T10:12:36.241Z,22.91
2017-05-26T10:13:36.178Z,22.9
2017-05-26T10:14:36.114Z,22.94
2017-05-26T10:15:36.353Z,22.83
2017-05-26T10:16:36.291Z,22.93
2017-05-26T10:17:36.225Z,22.81
2017-05-26T10:18:36.169Z,22.93
2017-05-26T10:19:36.099Z,22.93
2017-05-26T10:20:35.739Z,22.9
2017-05-26T10:21:35.676Z,22.91
2017-05-26T10:22:35.941Z,22.84
2017-05-26T10:23:35.850Z,22.91
2017-05-26T10:24:35.785Z,22.91
2017-05-26T10:25:35.439Z,22.81
2017-05-26T10:26:35.659Z,22.91
2017-05-26T10:27:35.598Z,22.91
2017-05-26T10:28:35.539Z,22.9
2017-05-26T10:29:35.469Z,22.94
2017-05-26T10:30:35.408Z,22.94
2017-05-26T10:31:35.041Z,22.96
2017-05-26T10:32:35.283Z,22.93
2017-05-26T10:33:35.214Z,22.94
2017-05-26T10:34:35.218Z,22.88
2017-05-26T10:35:35.091Z,22.96
2017-05-26T10:36:35.029Z,22.9
2017-05-26T10:37:34.966Z,22.99
2017-05-26T10:38:34.601Z,22.9
2017-05-26T10:39:34.537Z,22.98
2017-05-26T10:40:34.775Z,22.94
2017-05-26T10:41:34.710Z,22.96
2017-05-26T10:42:34.657Z,22.93
2017-05-26T10:43:34.590Z,22.91
2017-05-26T10:44:34.527Z,22.99
2017-05-26T10:45:34.459Z,22.91
2017-05-26T10:46:34.411Z,22.93
2017-05-26T10:47:34.333Z,22.96
2017-05-26T10:48:34.274Z,22.9
2017-05-26T10:49:34.216Z,22.9
2017-05-26T10:50:33.854Z,22.93
2017-05-26T10:51:34.126Z,22.84
2017-05-26T10:52:34.025Z,22.93
2017-05-26T10:53:33.955Z,22.93
2017-05-26T10:54:33.889Z,22.88
2017-05-26T10:55:33.831Z,22.96
2017-05-26T10:56:33.771Z,22.91
2017-05-26T10:57:33.705Z,22.91
2017-05-26T10:58:33.647Z,22.9
2017-05-26T10:59:33.575Z,22.96
2017-05-26T11:00:33.212Z,22.87
2017-05-26T11:01:33.453Z,22.88
2017-05-26T11:02:33.392Z,22.91
2017-05-26T11:03:33.324Z,22.96
2017-05-26T11:04:33.259Z,22.93
2017-05-26T11:05:33.203Z,22.91
2017-05-26T11:06:33.135Z,22.98
2017-05-26T11:07:32.769Z,22.98
2017-05-26T11:08:33.011Z,22.87
2017-05-26T11:09:32.947Z,23
2017-05-26T11:10:32.885Z,22.98
2017-05-26T11:11:32.826Z,22.93
2017-05-26T11:12:32.764Z,22.88
2017-05-26T11:13:32.700Z,22.88
2017-05-26T11:14:32.331Z,22.99
2017-05-26T11:15:32.569Z,22.87
2017-05-26T11:16:32.509Z,22.93
2017-05-26T11:17:32.443Z,22.98
2017-05-26T11:18:32.384Z,22.93
2017-05-26T11:19:32.317Z,22.93
2017-05-26T11:20:32.553Z,22.93
2017-05-26T11:21:31.888Z,22.88
2017-05-26T11:22:32.132Z,22.91
2017-05-26T11:23:32.073Z,22.98
2017-05-26T11:24:32.003Z,22.9
2017-05-26T11:25:31.948Z,22.98
2017-05-26T11:26:31.877Z,23
2017-05-26T11:27:31.512Z,22.98
2017-05-26T11:28:31.749Z,22.94
2017-05-26T11:29:31.687Z,22.9
2017-05-26T11:30:31.624Z,22.93
2017-05-26T11:31:31.560Z,23
2017-05-26T11:32:31.531Z,22.93
2017-05-26T11:33:31.435Z,22.91
2017-05-26T11:34:31.372Z,22.98
2017-05-26T11:35:31.314Z,22.9
2017-05-26T11:36:30.947Z,22.93
2017-05-26T11:37:31.195Z,22.91
2017-05-26T11:38:30.816Z,23
2017-05-26T11:39:31.065Z,22.91
2017-05-26T11:40:30.993Z,22.88
2017-05-26T11:41:30.621Z,22.98
2017-05-26T11:42:30.565Z,22.98
2017-05-26T11:43:30.813Z,22.88
2017-05-26T11:44:30.743Z,22.9
2017-05-26T11:45:30.674Z,22.94
2017-05-26T11:46:30.612Z,22.94
2017-05-26T11:47:30.551Z,22.94
2017-05-26T11:48:30.485Z,22.98
2017-05-26T11:49:30.424Z,22.91
2017-05-26T11:50:29.756Z,22.93
2017-05-26T11:51:30.313Z,22.87
2017-05-26T11:52:30.236Z,22.87
2017-05-26T11:53:30.175Z,22.87
2017-05-26T11:54:30.115Z,22.9
2017-05-26T11:55:29.744Z,22.94
2017-05-26T11:56:29.983Z,22.84
2017-05-26T11:57:29.744Z,22.91
2017-05-26T11:58:30.058Z,22.91
2017-05-26T11:59:29.798Z,22.91
2017-05-26T12:00:29.731Z,22.9
2017-05-26T12:01:29.759Z,22.9
2017-05-26T12:02:29.644Z,22.94
2017-05-26T12:03:29.236Z,22.87
2017-05-26T12:04:29.480Z,22.98
2017-05-26T12:05:29.515Z,22.91
2017-05-26T12:06:29.352Z,22.91
2017-05-26T12:07:29.288Z,22.87
2017-05-26T12:08:29.228Z,22.96
2017-05-26T12:09:28.864Z,22.88
2017-05-26T12:10:29.269Z,22.9
2017-05-26T12:11:28.732Z,22.91
2017-05-26T12:12:28.675Z,22.96
2017-05-26T12:13:28.609Z,22.93
2017-05-26T12:14:28.245Z,22.91
2017-05-26T12:15:28.786Z,22.96
2017-05-26T12:16:28.418Z,22.96
2017-05-26T12:17:28.358Z,22.93
2017-05-26T12:18:28.596Z,22.93
2017-05-26T12:19:28.530Z,22.91
2017-05-26T12:20:28.167Z,22.84
2017-05-26T12:21:28.100Z,22.91
2017-05-26T12:22:28.037Z,22.9
2017-05-26T12:23:27.977Z,22.88
2017-05-26T12:24:28.219Z,22.83
2017-05-26T12:25:28.152Z,22.87
2017-05-26T12:26:28.087Z,22.91
2017-05-26T12:27:28.032Z,22.91
2017-05-26T12:28:27.970Z,22.94
2017-05-26T12:29:27.959Z,22.9
2017-05-26T12:30:27.536Z,22.9
2017-05-26T12:31:27.837Z,22.96
2017-05-26T12:32:27.714Z,22.9
2017-05-26T12:33:27.644Z,22.91
2017-05-26T12:34:27.586Z,22.91
2017-05-26T12:35:27.527Z,22.76
2017-05-26T12:36:27.457Z,22.91
2017-05-26T12:37:27.392Z,22.83
2017-05-26T12:38:27.029Z,22.93
2017-05-26T12:39:26.967Z,22.9
2017-05-26T12:40:27.260Z,22.9
2017-05-26T12:41:27.146Z,22.84
2017-05-26T12:42:27.077Z,22.88
2017-05-26T12:43:27.068Z,22.85
2017-05-26T12:44:26.650Z,22.94
2017-05-26T12:45:26.944Z,22.9
2017-05-26T12:46:26.829Z,22.88
2017-05-26T12:47:26.771Z,22.83
2017-05-26T12:48:26.699Z,22.93
2017-05-26T12:49:26.637Z,22.84
2017-05-26T12:50:25.969Z,22.81
2017-05-26T12:51:26.209Z,22.94
2017-05-26T12:52:26.450Z,22.88
2017-05-26T12:53:26.391Z,22.8
2017-05-26T12:54:26.322Z,22.84
2017-05-26T12:55:26.263Z,22.91
2017-05-26T12:56:26.201Z,22.94
2017-05-26T12:57:26.136Z,22.85